createdAt,value
2017-12-28T00:00:29.403Z,68.41
2017-12-28T00:02:56.999Z,68.66
2017-12-28T00:05:24.654Z,68.60
2017-12-28T00:07:52.250Z,68.74
2017-12-28T00:10:19.850Z,68.90
2017-12-28T00:12:47.550Z,68.75
2017-12-28T00:15:15.202Z,68.77
2017-12-28T00:17:42.799Z,68.40
2017-12-28T00:20:10.438Z,68.29
2017-12-28T00:22:38.095Z,68.29
2017-12-28T00:25:05.760Z,68.15
2017-12-28T00:27:33.473Z,68.10
2017-12-28T00:30:01.163Z,67.94
2017-12-28T00:32:28.822Z,68.00
2017-12-28T00:34:56.487Z,67.94
2017-12-28T00:37:24.094Z,67.72
2017-12-28T00:39:51.710Z,67.71
2017-12-28T00:42:19.371Z,67.75
2017-12-28T00:44:46.973Z,67.27
2017-12-28T00:47:14.635Z,66.98
2017-12-28T00:49:42.351Z,66.66
2017-12-28T00:52:09.942Z,66.34
2017-12-28T00:54:37.539Z,66.25
2017-12-28T00:57:05.218Z,66.30
2017-12-28T00:59:32.876Z,65.94
2017-12-28T01:02:00.551Z,65.74
2017-12-28T01:04:28.206Z,65.59
2017-12-28T01:06:55.866Z,65.56
2017-12-28T01:09:23.459Z,65.48
2017-12-28T01:11:51.134Z,65.65
2017-12-28T01:14:18.726Z,65.60
2017-12-28T01:16:46.374Z,65.60
2017-12-28T01:19:14.091Z,65.71
2017-12-28T01:21:41.679Z,65.71
2017-12-28T01:24:09.351Z,65.75
2017-12-28T01:26:37.055Z,65.92
2017-12-28T01:29:04.645Z,65.84
2017-12-28T01:31:32.238Z,65.65
2017-12-28T01:33:59.939Z,65.92
2017-12-28T01:36:27.540Z,65.64
2017-12-28T01:38:55.151Z,65.50
2017-12-28T01:41:22.802Z,65.27
2017-12-28T01:43:50.399Z,65.30
2017-12-28T01:46:17.990Z,65.54
2017-12-28T01:48:45.750Z,65.64
2017-12-28T01:51:13.339Z,65.43
2017-12-28T01:53:40.987Z,65.38
2017-12-28T01:56:08.625Z,65.01
2017-12-28T01:58:36.225Z,64.85
2017-12-28T02:01:03.875Z,64.91
2017-12-28T02:03:31.524Z,64.65
2017-12-28T02:05:59.184Z,64.77
2017-12-28T02:08:26.778Z,64.88
2017-12-28T02:10:54.430Z,64.62
2017-12-28T02:13:22.087Z,64.50
2017-12-28T02:15:49.687Z,64.33
2017-12-28T02:18:17.391Z,64.18
2017-12-28T02:20:44.982Z,64.20
2017-12-28T02:23:12.578Z,64.41
2017-12-28T02:25:40.230Z,64.17
2017-12-28T02:28:07.886Z,64.41
2017-12-28T02:30:35.483Z,64.51
2017-12-28T02:33:03.138Z,64.68
2017-12-28T02:35:30.743Z,64.82
2017-12-28T02:37:58.335Z,64.52
2017-12-28T02:40:25.986Z,64.59
2017-12-28T02:42:53.587Z,64.78
2017-12-28T02:45:21.182Z,64.84
2017-12-28T02:47:48.842Z,64.72
2017-12-28T02:50:16.486Z,64.56
2017-12-28T02:52:44.078Z,64.49
2017-12-28T02:55:11.795Z,64.81
2017-12-28T02:57:39.394Z,64.92
2017-12-28T03:00:06.986Z,64.92
2017-12-28T03:02:34.714Z,64.98
2017-12-28T03:05:02.312Z,65.09
2017-12-28T03:07:29.971Z,65.13
2017-12-28T03:09:57.613Z,64.87
2017-12-28T03:12:25.262Z,64.83
2017-12-28T03:14:52.854Z,65.15
2017-12-28T03:17:20.535Z,65.32
2017-12-28T03:19:48.142Z,65.45
2017-12-28T03:22:15.762Z,65.56
2017-12-28T03:24:43.422Z,65.76
2017-12-28T03:27:11.085Z,66.01
2017-12-28T03:29:38.742Z,66.17
2017-12-28T03:32:06.391Z,66.27
2017-12-28T03:34:33.990Z,66.19
2017-12-28T03:37:01.600Z,65.95
2017-12-28T03:39:29.262Z,66.03
2017-12-28T03:41:56.858Z,65.91
2017-12-28T03:44:24.482Z,66.27
2017-12-28T03:46:52.134Z,66.71
2017-12-28T03:49:19.782Z,66.11
2017-12-28T03:51:47.378Z,66.23
2017-12-28T03:54:15.027Z,66.03
2017-12-28T03:56:42.680Z,66.03
2017-12-28T03:59:10.281Z,65.96
2017-12-28T04:01:37.969Z,65.94
2017-12-28T04:04:05.626Z,65.66
2017-12-28T04:06:33.218Z,65.65
2017-12-28T04:09:00.920Z,65.36
2017-12-28T04:11:28.510Z,65.39
2017-12-28T04:13:56.107Z,65.68
2017-12-28T04:16:23.811Z,65.81
2017-12-28T04:18:51.401Z,65.60
2017-12-28T04:21:19.058Z,65.28
2017-12-28T04:23:46.714Z,65.51
2017-12-28T04:26:14.360Z,65.64
2017-12-28T04:28:41.953Z,65.83
2017-12-28T04:31:09.601Z,66.03
2017-12-28T04:33:37.257Z,66.29
2017-12-28T04:36:04.901Z,66.17
2017-12-28T04:38:32.534Z,66.62
2017-12-28T04:41:00.130Z,66.73
2017-12-28T04:43:27.754Z,66.96
2017-12-28T04:45:55.457Z,67.18
2017-12-28T04:48:23.110Z,67.34
2017-12-28T04:50:50.787Z,67.19
2017-12-28T04:53:18.551Z,66.87
2017-12-28T04:55:46.198Z,67.04
2017-12-28T04:58:13.786Z,66.97
2017-12-28T05:00:41.439Z,66.84
2017-12-28T05:03:09.041Z,66.56
2017-12-28T05:05:36.698Z,66.81
2017-12-28T05:08:04.345Z,66.77
2017-12-28T05:10:32.011Z,67.08
2017-12-28T05:12:59.631Z,67.12
2017-12-28T05:15:27.286Z,67.18
2017-12-28T05:17:54.877Z,67.21
2017-12-28T05:20:22.475Z,66.88
2017-12-28T05:22:50.124Z,67.12
2017-12-28T05:25:17.771Z,67.29
2017-12-28T05:27:45.436Z,67.12
2017-12-28T05:30:13.139Z,67.34
2017-12-28T05:32:40.726Z,67.70
2017-12-28T05:35:08.320Z,68.12
2017-12-28T05:37:35.966Z,68.39
2017-12-28T05:40:03.616Z,68.60
2017-12-28T05:42:31.210Z,68.65
2017-12-28T05:44:58.973Z,68.61
2017-12-28T05:47:26.569Z,68.48
2017-12-28T05:49:54.229Z,68.31
2017-12-28T05:52:21.887Z,68.53
2017-12-28T05:54:49.486Z,68.54
2017-12-28T05:57:17.139Z,68.24
2017-12-28T05:59:44.855Z,68.05
2017-12-28T06:02:12.510Z,67.52
2017-12-28T06:04:40.120Z,67.71
2017-12-28T06:07:07.790Z,67.82
2017-12-28T06:09:35.382Z,67.64
2017-12-28T06:12:02.978Z,67.47
2017-12-28T06:14:30.619Z,67.70
2017-12-28T06:16:58.209Z,67.44
2017-12-28T06:19:25.875Z,67.66
2017-12-28T06:21:53.553Z,67.56
2017-12-28T06:24:21.168Z,67.44
2017-12-28T06:26:48.881Z,67.16
2017-12-28T06:29:16.590Z,66.92
2017-12-28T06:31:44.197Z,66.77
2017-12-28T06:34:11.856Z,66.67
2017-12-28T06:36:39.502Z,66.72
2017-12-28T06:39:07.139Z,66.47
2017-12-28T06:41:34.805Z,66.49
2017-12-28T06:44:02.462Z,66.25
2017-12-28T06:46:30.067Z,65.81
2017-12-28T06:48:57.669Z,65.70
2017-12-28T06:51:25.323Z,65.72
2017-12-28T06:53:52.974Z,65.12
2017-12-28T06:56:20.566Z,64.86
2017-12-28T06:58:48.221Z,64.35
2017-12-28T07:01:15.896Z,64.06
2017-12-28T07:03:43.505Z,63.92
2017-12-28T07:06:11.126Z,63.74
2017-12-28T07:08:38.719Z,63.33
2017-12-28T07:11:06.427Z,63.27
2017-12-28T07:13:34.018Z,63.27
2017-12-28T07:16:01.628Z,63.13
2017-12-28T07:18:29.310Z,62.97
2017-12-28T07:20:56.907Z,62.36
2017-12-28T07:23:24.572Z,62.34
2017-12-28T07:25:52.188Z,62.21
2017-12-28T07:28:19.852Z,62.34
2017-12-28T07:30:47.567Z,62.31
2017-12-28T07:33:15.224Z,62.12
2017-12-28T07:35:42.880Z,62.12
2017-12-28T07:38:10.491Z,62.07
2017-12-28T07:40:38.087Z,61.91
2017-12-28T07:43:05.750Z,61.08
2017-12-28T07:45:33.342Z,60.95
2017-12-28T07:48:00.950Z,60.28
2017-12-28T07:50:28.561Z,59.99
2017-12-28T07:52:56.162Z,59.79
2017-12-28T07:55:23.875Z,59.49
2017-12-28T07:57:51.470Z,59.32
2017-12-28T08:00:19.174Z,58.82
2017-12-28T08:02:46.782Z,58.57
2017-12-28T08:05:14.459Z,58.52
2017-12-28T08:07:42.170Z,57.99
2017-12-28T08:10:09.819Z,57.57
2017-12-28T08:12:37.484Z,57.24
2017-12-28T08:15:05.159Z,56.81
2017-12-28T08:17:32.762Z,56.47
2017-12-28T08:20:00.443Z,56.49
2017-12-28T08:22:28.041Z,56.72
2017-12-28T08:24:55.654Z,57.06
2017-12-28T08:27:23.350Z,58.03
2017-12-28T08:29:51.021Z,58.26
2017-12-28T08:32:18.756Z,58.71
2017-12-28T08:34:46.425Z,58.84
2017-12-28T08:37:14.091Z,58.53
2017-12-28T08:39:41.698Z,58.85
2017-12-28T08:42:09.322Z,58.94
2017-12-28T08:44:36.974Z,59.16
2017-12-28T08:47:04.634Z,58.74
2017-12-28T08:49:32.226Z,58.34
2017-12-28T08:51:59.901Z,58.21
2017-12-28T08:54:27.614Z,58.17
2017-12-28T08:56:55.274Z,57.75
2017-12-28T08:59:22.930Z,58.06
2017-12-28T09:01:50.545Z,58.44
2017-12-28T09:04:18.219Z,58.67
2017-12-28T09:06:45.819Z,58.61
2017-12-28T09:09:13.548Z,58.68
2017-12-28T09:11:41.153Z,58.69
2017-12-28T09:14:08.762Z,58.52
2017-12-28T09:16:36.371Z,58.50
2017-12-28T09:19:03.993Z,57.89
2017-12-28T09:21:31.763Z,57.54
2017-12-28T09:23:59.363Z,57.06
2017-12-28T09:26:26.969Z,57.13
2017-12-28T09:28:54.591Z,57.39
2017-12-28T09:31:22.196Z,57.17
2017-12-28T09:33:49.860Z,56.81
2017-12-28T09:36:17.543Z,57.10
2017-12-28T09:38:45.149Z,56.74
2017-12-28T09:41:12.791Z,56.99
2017-12-28T09:43:40.404Z,57.19
2017-12-28T09:46:08.092Z,57.50
2017-12-28T09:48:35.691Z,57.23
2017-12-28T09:51:03.290Z,57.59
2017-12-28T09:53:30.898Z,57.60
2017-12-28T09:55:58.550Z,57.78
2017-12-28T09:58:26.205Z,57.68
2017-12-28T10:00:53.811Z,57.79
2017-12-28T10:03:21.427Z,57.32
2017-12-28T10:05:49.103Z,56.90
2017-12-28T10:08:16.805Z,56.69
2017-12-28T10:10:44.480Z,56.45
2017-12-28T10:13:12.089Z,56.43
2017-12-28T10:15:39.692Z,56.71
2017-12-28T10:18:07.370Z,56.98
2017-12-28T10:20:34.970Z,57.06
2017-12-28T10:23:02.690Z,57.15
2017-12-28T10:25:30.291Z,57.05
2017-12-28T10:27:57.943Z,57.20
2017-12-28T10:30:25.611Z,57.19
2017-12-28T10:32:53.217Z,57.46
2017-12-28T10:35:20.870Z,57.63
2017-12-28T10:37:48.467Z,57.89
2017-12-28T10:40:16.069Z,58.10
2017-12-28T10:42:43.760Z,58.34
2017-12-28T10:45:11.379Z,58.48
2017-12-28T10:47:39.067Z,58.54
2017-12-28T10:50:06.748Z,58.59
2017-12-28T10:52:34.360Z,58.52
2017-12-28T10:55:01.976Z,58.64
2017-12-28T10:57:29.926Z,58.79
2017-12-28T10:59:57.585Z,59.28
2017-12-28T11:02:25.252Z,59.46
2017-12-28T11:04:52.927Z,59.88
2017-12-28T11:07:20.651Z,60.04
2017-12-28T11:09:48.323Z,60.06
2017-12-28T11:12:16.002Z,60.02
2017-12-28T11:14:43.698Z,59.88
2017-12-28T11:17:11.332Z,59.80
2017-12-28T11:19:39.017Z,60.08
2017-12-28T11:22:06.623Z,59.90
2017-12-28T11:24:34.318Z,59.88
2017-12-28T11:27:01.914Z,59.66
2017-12-28T11:29:29.587Z,59.34
2017-12-28T11:31:57.203Z,58.94
2017-12-28T11:34:24.866Z,58.69
2017-12-28T11:36:52.639Z,58.94
2017-12-28T11:39:20.244Z,58.89
2017-12-28T11:41:47.914Z,59.35
2017-12-28T11:44:15.531Z,59.38
2017-12-28T11:46:43.138Z,59.09
2017-12-28T11:49:10.866Z,59.27
2017-12-28T11:51:44.465Z,59.21
2017-12-28T11:54:13.087Z,59.04
2017-12-28T11:56:40.752Z,59.32
2017-12-28T11:59:13.796Z,59.26
2017-12-28T12:01:47.032Z,59.46
2017-12-28T12:04:21.126Z,59.82
2017-12-28T12:06:54.318Z,60.22
2017-12-28T12:09:21.973Z,60.15
2017-12-28T12:11:49.645Z,60.29
2017-12-28T12:14:17.270Z,60.58
2017-12-28T12:16:44.874Z,60.38
2017-12-28T12:19:12.481Z,60.42
2017-12-28T12:21:40.156Z,60.62
2017-12-28T12:24:07.842Z,60.68
2017-12-28T12:26:35.511Z,60.63
2017-12-28T12:29:03.120Z,60.85
2017-12-28T12:31:30.791Z,60.97
2017-12-28T12:33:58.394Z,61.08
2017-12-28T12:36:26.103Z,61.22
2017-12-28T12:38:53.710Z,60.89
2017-12-28T12:41:21.370Z,60.83
2017-12-28T12:43:49.036Z,60.98
2017-12-28T12:46:16.638Z,60.84
2017-12-28T12:48:44.343Z,60.86
2017-12-28T12:51:11.943Z,60.44
2017-12-28T12:53:39.555Z,60.48
2017-12-28T12:56:07.167Z,60.29
2017-12-28T12:58:34.777Z,60.45
2017-12-28T13:01:02.439Z,60.37
2017-12-28T13:03:30.050Z,60.52
2017-12-28T13:05:57.660Z,60.01
2017-12-28T13:08:25.345Z,59.67
2017-12-28T13:10:52.954Z,59.42
2017-12-28T13:13:20.670Z,59.58
2017-12-28T13:15:48.346Z,59.34
2017-12-28T13:18:15.956Z,59.36
2017-12-28T13:20:43.635Z,59.63
2017-12-28T13:23:11.240Z,59.38
2017-12-28T13:25:39.367Z,59.51
2017-12-28T13:28:07.031Z,59.17
2017-12-28T13:30:34.697Z,59.06
2017-12-28T13:33:02.314Z,58.76
2017-12-28T13:35:29.983Z,58.53
2017-12-28T13:37:57.705Z,58.48
2017-12-28T13:40:25.326Z,58.61
2017-12-28T13:42:52.922Z,58.45
2017-12-28T13:45:20.601Z,58.65
2017-12-28T13:47:48.216Z,58.81
2017-12-28T13:50:15.883Z,58.60
2017-12-28T13:52:43.506Z,58.40
2017-12-28T13:55:11.109Z,58.35
2017-12-28T13:57:38.783Z,58.30
2017-12-28T14:00:06.386Z,58.45
2017-12-28T14:02:34.051Z,58.63
2017-12-28T14:05:01.660Z,58.16
2017-12-28T14:07:29.266Z,58.10
2017-12-28T14:09:56.937Z,57.82
2017-12-28T14:12:24.534Z,57.68
2017-12-28T14:14:52.203Z,57.74
2017-12-28T14:17:19.806Z,57.64
2017-12-28T14:19:47.407Z,57.52
2017-12-28T14:22:15.080Z,57.55
2017-12-28T14:24:42.694Z,57.79
2017-12-28T14:27:10.442Z,58.00
2017-12-28T14:29:38.066Z,57.91
2017-12-28T14:32:05.691Z,58.25
2017-12-28T14:34:33.398Z,58.20
2017-12-28T14:37:01.083Z,58.15
2017-12-28T14:39:28.805Z,58.29
2017-12-28T14:41:56.414Z,58.38
2017-12-28T14:44:24.064Z,58.41
2017-12-28T14:46:51.749Z,58.42
2017-12-28T14:49:19.365Z,58.38
2017-12-28T14:51:47.033Z,58.33
2017-12-28T14:54:14.634Z,58.63
2017-12-28T14:56:42.310Z,58.30
2017-12-28T14:59:09.911Z,58.23
2017-12-28T15:01:37.519Z,58.04
2017-12-28T15:04:05.178Z,57.79
2017-12-28T15:06:32.793Z,57.87
2017-12-28T15:09:00.466Z,57.77
2017-12-28T15:11:28.147Z,57.69
2017-12-28T15:13:55.755Z,57.87
2017-12-28T15:16:23.500Z,58.04
2017-12-28T15:18:51.116Z,58.24
2017-12-28T15:21:18.730Z,58.11
2017-12-28T15:23:46.392Z,58.50
2017-12-28T15:26:14.071Z,58.51
2017-12-28T15:28:41.729Z,58.77
2017-12-28T15:31:09.401Z,58.82
2017-12-28T15:33:37.022Z,59.10
2017-12-28T15:36:04.637Z,59.43
2017-12-28T15:38:32.253Z,59.64
2017-12-28T15:40:59.909Z,59.93
2017-12-28T15:43:27.522Z,60.59
2017-12-28T15:45:55.187Z,60.36
2017-12-28T15:48:23.671Z,60.51
2017-12-28T15:50:51.266Z,60.61
2017-12-28T15:53:18.922Z,60.79
2017-12-28T15:55:46.519Z,60.35
2017-12-28T15:58:14.125Z,60.34
2017-12-28T16:00:41.796Z,60.21
2017-12-28T16:03:09.397Z,60.08
2017-12-28T16:05:37.074Z,59.89
2017-12-28T16:08:04.740Z,59.97
2017-12-28T16:10:32.407Z,60.30
2017-12-28T16:13:00.070Z,60.27
2017-12-28T16:15:27.739Z,59.99
2017-12-28T16:17:55.446Z,60.12
2017-12-28T16:20:23.047Z,59.96
2017-12-28T16:22:50.730Z,60.01
2017-12-28T16:25:18.330Z,60.08
2017-12-28T16:27:45.991Z,60.13
2017-12-28T16:30:13.670Z,60.12
2017-12-28T16:32:41.855Z,60.40
2017-12-28T16:35:09.450Z,60.56
2017-12-28T16:37:37.123Z,60.62
2017-12-28T16:40:04.727Z,60.63
2017-12-28T16:42:32.386Z,60.59
2017-12-28T16:44:59.994Z,60.55
2017-12-28T16:47:27.683Z,60.85
2017-12-28T16:49:55.385Z,60.65
2017-12-28T16:52:22.993Z,60.83
2017-12-28T16:54:50.646Z,61.13
2017-12-28T16:57:18.241Z,61.28
2017-12-28T16:59:45.890Z,61.50
2017-12-28T17:02:13.502Z,61.40
2017-12-28T17:04:41.109Z,61.72
2017-12-28T17:07:08.788Z,61.83
2017-12-28T17:09:36.498Z,61.69
2017-12-28T17:12:04.175Z,61.66
2017-12-28T17:14:31.855Z,61.65
2017-12-28T17:16:59.498Z,61.84
2017-12-28T17:19:27.158Z,61.60
2017-12-28T17:21:54.818Z,61.90
2017-12-28T17:24:22.422Z,62.21
2017-12-28T17:26:50.038Z,62.28
2017-12-28T17:29:17.707Z,62.52
2017-12-28T17:31:45.362Z,62.59
2017-12-28T17:34:12.957Z,62.83
2017-12-28T17:36:40.615Z,62.89
2017-12-28T17:39:08.231Z,62.96
2017-12-28T17:41:35.819Z,63.01
2017-12-28T17:44:03.486Z,62.65
2017-12-28T17:46:31.098Z,62.92
2017-12-28T17:48:58.766Z,63.24
2017-12-28T17:51:26.446Z,63.57
2017-12-28T17:53:54.666Z,63.51
2017-12-28T17:56:22.393Z,63.69
2017-12-28T17:58:49.998Z,63.87
2017-12-28T18:01:17.618Z,64.08
2017-12-28T18:03:45.238Z,64.04
2017-12-28T18:06:12.841Z,64.05
2017-12-28T18:08:41.475Z,64.36
2017-12-28T18:11:09.119Z,64.13
2017-12-28T18:13:36.772Z,64.35
2017-12-28T18:16:04.440Z,64.09
2017-12-28T18:18:32.055Z,63.82
2017-12-28T18:20:59.796Z,63.89
2017-12-28T18:23:27.469Z,64.06
2017-12-28T18:25:55.086Z,64.04
2017-12-28T18:28:22.754Z,63.99
2017-12-28T18:30:50.449Z,64.17
2017-12-28T18:33:18.215Z,63.95
2017-12-28T18:35:45.918Z,63.81
2017-12-28T18:38:13.546Z,63.77
2017-12-28T18:40:41.165Z,63.37
2017-12-28T18:43:08.864Z,63.53
2017-12-28T18:45:36.578Z,63.35
2017-12-28T18:48:04.279Z,63.47
2017-12-28T18:50:31.889Z,63.29
2017-12-28T18:52:59.507Z,63.42
2017-12-28T18:55:27.144Z,63.54
2017-12-28T18:57:54.863Z,63.65
2017-12-28T19:00:23.112Z,63.68
2017-12-28T19:02:50.772Z,63.86
2017-12-28T19:05:18.383Z,63.62
2017-12-28T19:07:46.378Z,63.65
2017-12-28T19:10:14.202Z,63.65
2017-12-28T19:12:41.806Z,63.39
2017-12-28T19:15:09.410Z,63.57
2017-12-28T19:17:37.203Z,63.61
2017-12-28T19:20:05.342Z,63.57
2017-12-28T19:22:33.039Z,63.68
2017-12-28T19:25:00.702Z,63.86
2017-12-28T19:27:29.431Z,63.71
2017-12-28T19:29:57.044Z,63.88
2017-12-28T19:32:24.666Z,64.05
2017-12-28T19:34:52.384Z,64.04
2017-12-28T19:37:19.994Z,64.06
2017-12-28T19:39:47.630Z,63.88
2017-12-28T19:42:16.791Z,63.85
2017-12-28T19:44:44.454Z,63.80
2017-12-28T19:47:12.170Z,63.96
2017-12-28T19:49:39.896Z,63.99
2017-12-28T19:52:07.556Z,64.20
2017-12-28T19:54:35.165Z,64.24
2017-12-28T19:57:02.782Z,64.26
2017-12-28T19:59:30.451Z,63.92
2017-12-28T20:01:58.866Z,63.94
2017-12-28T20:04:26.465Z,64.10
2017-12-28T20:06:54.074Z,64.18
2017-12-28T20:09:21.677Z,64.01
2017-12-28T20:11:49.329Z,64.16
2017-12-28T20:14:16.993Z,64.19
2017-12-28T20:16:44.607Z,64.13
2017-12-28T20:19:12.215Z,64.05
2017-12-28T20:21:39.882Z,64.19
2017-12-28T20:24:07.597Z,64.12
2017-12-28T20:26:35.199Z,64.29
2017-12-28T20:29:02.814Z,64.07
2017-12-28T20:31:30.411Z,63.89
2017-12-28T20:33:58.071Z,63.64
2017-12-28T20:36:25.726Z,63.57
2017-12-28T20:38:53.390Z,63.88
2017-12-28T20:41:21.039Z,64.19
2017-12-28T20:43:48.714Z,64.35
2017-12-28T20:46:16.335Z,64.61
2017-12-28T20:48:44.096Z,64.76
2017-12-28T20:51:11.764Z,65.01
2017-12-28T20:53:39.372Z,64.90
2017-12-28T20:56:06.994Z,65.00
2017-12-28T20:58:34.619Z,64.78
2017-12-28T21:01:02.331Z,64.87
2017-12-28T21:03:31.644Z,64.94
2017-12-28T21:05:59.247Z,64.70
2017-12-28T21:08:26.867Z,64.60
2017-12-28T21:10:54.524Z,64.64
2017-12-28T21:13:22.195Z,64.74
2017-12-28T21:15:49.800Z,64.84
2017-12-28T21:18:17.411Z,64.86
2017-12-28T21:20:45.016Z,64.79
2017-12-28T21:23:12.614Z,65.14
2017-12-28T21:25:40.293Z,65.12
2017-12-28T21:28:07.895Z,65.25
2017-12-28T21:30:35.563Z,65.38
2017-12-28T21:33:03.178Z,65.45
2017-12-28T21:35:30.770Z,65.32
2017-12-28T21:37:58.458Z,65.33
2017-12-28T21:40:26.086Z,65.40
2017-12-28T21:42:53.751Z,65.38
2017-12-28T21:45:21.350Z,65.35
2017-12-28T21:47:49.009Z,65.29
2017-12-28T21:50:16.672Z,64.91
2017-12-28T21:52:45.198Z,65.14
2017-12-28T21:55:12.855Z,65.20
2017-12-28T21:57:40.484Z,65.21
2017-12-28T22:00:08.120Z,65.22
2017-12-28T22:02:35.796Z,65.02
2017-12-28T22:05:03.472Z,65.00
2017-12-28T22:07:31.159Z,65.24
2017-12-28T22:09:58.770Z,65.04
2017-12-28T22:12:26.382Z,65.23
2017-12-28T22:14:54.053Z,65.12
2017-12-28T22:17:21.670Z,64.98
2017-12-28T22:19:49.284Z,64.83
2017-12-28T22:22:16.958Z,64.67
2017-12-28T22:24:44.587Z,64.53
2017-12-28T22:27:12.255Z,64.58
2017-12-28T22:29:41.152Z,64.73
2017-12-28T22:32:08.807Z,64.56
2017-12-28T22:34:36.474Z,64.67
2017-12-28T22:37:04.069Z,64.63
2017-12-28T22:39:31.759Z,64.77
2017-12-28T22:41:59.352Z,64.73
2017-12-28T22:44:26.963Z,64.82
2017-12-28T22:46:54.630Z,64.88
2017-12-28T22:49:22.296Z,64.89
2017-12-28T22:51:49.945Z,65.14
2017-12-28T22:54:17.610Z,65.16
2017-12-28T22:56:45.206Z,65.31
2017-12-28T22:59:12.806Z,65.57
2017-12-28T23:01:40.410Z,65.36
2017-12-28T23:04:08.123Z,65.57
2017-12-28T23:06:35.725Z,65.72
2017-12-28T23:09:03.404Z,65.97
2017-12-28T23:15:01.594Z,66.74
2017-12-28T23:17:29.190Z,66.75
2017-12-28T23:19:56.778Z,66.76
2017-12-28T23:22:24.379Z,66.80
2017-12-28T23:24:52.630Z,66.69
2017-12-28T23:27:20.286Z,66.85
2017-12-28T23:29:47.951Z,66.94
2017-12-28T23:32:15.610Z,66.99
2017-12-28T23:34:43.275Z,66.92
2017-12-28T23:37:10.880Z,67.18
2017-12-28T23:39:38.607Z,67.15
2017-12-28T23:42:06.205Z,67.27
2017-12-28T23:44:33.803Z,67.39
2017-12-28T23:47:01.419Z,67.26
2017-12-28T23:49:29.016Z,67.45
2017-12-28T23:51:56.666Z,67.55
2017-12-28T23:54:24.262Z,67.81
2017-12-28T23:56:51.857Z,67.89
2017-12-28T23:59:19.462Z,68.06
